createdAt,value
2022-11-12T00:01:52.667Z,12.62
2022-11-12T00:04:38.510Z,12.63
2022-11-12T00:07:24.103Z,12.39
2022-11-12T00:10:09.824Z,12.42
2022-11-12T00:12:55.930Z,12.60
2022-11-12T00:15:41.902Z,12.40
2022-11-12T00:18:27.887Z,12.46
2022-11-12T00:21:14.176Z,12.54
2022-11-12T00:23:59.900Z,12.65
2022-11-12T00:26:45.848Z,12.46
2022-11-12T00:29:31.613Z,12.27
2022-11-12T00:32:17.913Z,12.36
2022-11-12T00:35:06.041Z,12.42
2022-11-12T00:37:57.014Z,12.28
2022-11-12T00:40:43.141Z,12.15
2022-11-12T00:43:28.657Z,11.87
2022-11-12T00:46:14.869Z,11.95
2022-11-12T00:49:01.024Z,12.11
2022-11-12T00:51:47.274Z,12.15
2022-11-12T00:54:33.171Z,12.11
2022-11-12T00:57:18.877Z,12.23
2022-11-12T01:00:08.262Z,12.07
2022-11-12T01:02:54.258Z,12.26
2022-11-12T01:05:39.885Z,12.31
2022-11-12T01:08:29.896Z,12.17
2022-11-12T01:11:25.009Z,12.29
2022-11-12T01:14:12.211Z,12.14
2022-11-12T01:16:57.901Z,12.32
2022-11-12T01:19:43.689Z,12.42
2022-11-12T01:22:29.442Z,12.31
2022-11-12T01:25:15.447Z,12.07
2022-11-12T01:28:01.352Z,11.86
2022-11-12T01:30:47.475Z,11.83
2022-11-12T01:33:32.991Z,11.90
2022-11-12T01:36:19.603Z,11.83
2022-11-12T01:39:06.964Z,11.74
2022-11-12T01:41:52.520Z,11.66
2022-11-12T01:44:41.200Z,11.80
2022-11-12T01:47:29.668Z,11.72
2022-11-12T01:50:20.738Z,11.73
2022-11-12T01:53:09.205Z,11.87
2022-11-12T01:55:56.032Z,11.94
2022-11-12T01:58:42.421Z,11.97
2022-11-12T02:01:28.065Z,11.97
2022-11-12T02:04:14.096Z,11.97
2022-11-12T02:07:00.659Z,12.05
2022-11-12T02:09:46.884Z,12.15
2022-11-12T02:12:52.532Z,12.05
2022-11-12T02:15:39.047Z,11.95
2022-11-12T02:18:25.019Z,11.97
2022-11-12T02:21:10.963Z,11.73
2022-11-12T02:23:59.377Z,11.89
2022-11-12T02:26:47.992Z,11.93
2022-11-12T02:29:34.362Z,11.91
2022-11-12T02:32:19.914Z,11.88
2022-11-12T02:35:05.981Z,11.74
2022-11-12T02:37:51.607Z,11.80
2022-11-12T02:40:37.646Z,11.63
2022-11-12T02:44:03.741Z,11.60
2022-11-12T02:46:57.175Z,11.44
2022-11-12T02:49:44.706Z,11.49
2022-11-12T02:52:30.488Z,11.80
2022-11-12T02:55:16.206Z,11.42
2022-11-12T02:58:02.065Z,11.21
2022-11-12T03:00:47.647Z,11.37
2022-11-12T03:03:33.862Z,11.14
2022-11-12T03:06:20.221Z,11.15
2022-11-12T03:09:05.914Z,11.24
2022-11-12T03:11:51.634Z,11.34
2022-11-12T03:14:37.360Z,11.31
2022-11-12T03:17:23.494Z,11.43
2022-11-12T03:20:10.563Z,11.38
2022-11-12T03:22:59.973Z,11.28
2022-11-12T03:25:46.038Z,11.28
2022-11-12T03:28:32.428Z,11.18
2022-11-12T03:31:18.284Z,11.09
2022-11-12T03:34:04.107Z,11.35
2022-11-12T03:36:49.845Z,11.46
2022-11-12T03:39:36.558Z,11.38
2022-11-12T03:42:22.556Z,11.44
2022-11-12T03:45:08.418Z,11.40
2022-11-12T03:47:58.195Z,11.38
2022-11-12T03:50:44.076Z,11.62
2022-11-12T03:53:30.161Z,11.60
2022-11-12T03:56:16.227Z,11.62
2022-11-12T03:59:01.961Z,11.31
2022-11-12T04:01:48.265Z,11.22
2022-11-12T04:05:14.597Z,11.33
2022-11-12T04:08:21.213Z,11.46
2022-11-12T04:11:12.929Z,11.44
2022-11-12T04:13:58.916Z,11.43
2022-11-12T04:17:03.439Z,11.18
2022-11-12T04:20:07.636Z,11.26
2022-11-12T04:22:53.430Z,11.43
2022-11-12T04:25:58.369Z,11.20
2022-11-12T04:29:04.180Z,11.03
2022-11-12T04:31:50.376Z,10.92
2022-11-12T04:34:36.306Z,11.15
2022-11-12T04:37:23.884Z,11.14
2022-11-12T04:40:45.157Z,11.21
2022-11-12T04:43:52.643Z,11.27
2022-11-12T04:46:38.431Z,11.29
2022-11-12T04:49:28.421Z,11.37
2022-11-12T04:52:14.520Z,11.08
2022-11-12T04:55:00.641Z,10.95
2022-11-12T04:57:46.408Z,11.02
2022-11-12T05:00:32.381Z,11.00
2022-11-12T05:03:18.687Z,10.94
2022-11-12T05:06:29.109Z,10.79
2022-11-12T05:09:15.171Z,10.76
2022-11-12T05:12:01.263Z,10.47
2022-11-12T05:14:46.928Z,10.49
2022-11-12T05:17:32.489Z,10.67
2022-11-12T05:20:18.590Z,10.75
2022-11-12T05:23:07.339Z,10.63
2022-11-12T05:25:53.696Z,10.84
2022-11-12T05:28:39.385Z,10.97
2022-11-12T05:31:25.195Z,10.81
2022-11-12T05:34:11.324Z,10.81
2022-11-12T05:36:57.388Z,10.74
2022-11-12T05:39:43.629Z,10.66
2022-11-12T05:42:29.387Z,10.75
2022-11-12T05:45:15.396Z,10.70
2022-11-12T05:48:01.353Z,10.91
2022-11-12T05:51:12.995Z,11.07
2022-11-12T05:53:56.106Z,10.99
2022-11-12T05:56:41.973Z,10.90
2022-11-12T05:59:27.879Z,10.81
2022-11-12T06:02:13.749Z,10.92
2022-11-12T06:04:59.644Z,10.98
2022-11-12T06:07:45.366Z,10.94
2022-11-12T06:10:32.277Z,10.98
2022-11-12T06:13:18.808Z,10.69
2022-11-12T06:16:05.556Z,10.68
2022-11-12T06:18:51.518Z,10.79
2022-11-12T06:21:37.816Z,10.93
2022-11-12T06:24:24.276Z,10.92
2022-11-12T06:27:10.341Z,10.97
2022-11-12T06:29:55.844Z,11.04
2022-11-12T06:32:41.582Z,10.94
2022-11-12T06:35:27.409Z,10.94
2022-11-12T06:38:13.465Z,10.72
2022-11-12T06:40:59.846Z,10.62
2022-11-12T06:43:46.116Z,10.75
2022-11-12T06:46:31.770Z,10.74
2022-11-12T06:49:17.379Z,10.56
2022-11-12T06:52:03.710Z,10.84
2022-11-12T06:54:49.521Z,10.79
2022-11-12T06:57:36.013Z,10.91
2022-11-12T07:00:23.494Z,11.00
2022-11-12T07:03:10.125Z,10.90
2022-11-12T07:05:55.969Z,11.14
2022-11-12T07:08:42.134Z,11.16
2022-11-12T07:11:27.971Z,11.07
2022-11-12T07:14:13.802Z,10.93
2022-11-12T07:16:59.356Z,10.82
2022-11-12T07:19:45.333Z,11.04
2022-11-12T07:22:33.385Z,10.87
2022-11-12T07:25:19.323Z,10.98
2022-11-12T07:28:05.075Z,10.97
2022-11-12T07:31:04.616Z,11.03
2022-11-12T07:33:53.060Z,11.05
2022-11-12T07:36:38.978Z,11.12
2022-11-12T07:39:24.772Z,11.15
2022-11-12T07:42:10.556Z,10.87
2022-11-12T07:44:56.573Z,10.78
2022-11-12T07:47:42.630Z,10.84
2022-11-12T07:50:28.594Z,10.87
2022-11-12T07:53:14.382Z,10.94
2022-11-12T07:56:01.681Z,10.97
2022-11-12T07:58:48.256Z,10.91
2022-11-12T08:01:34.684Z,10.98
2022-11-12T08:04:20.700Z,11.20
2022-11-12T08:07:06.801Z,11.02
2022-11-12T08:09:53.231Z,11.09
2022-11-12T08:12:38.985Z,10.97
2022-11-12T08:15:25.015Z,10.98
2022-11-12T08:18:10.586Z,11.20
2022-11-12T08:21:04.994Z,11.20
2022-11-12T08:23:50.949Z,11.26
2022-11-12T08:26:37.067Z,11.22
2022-11-12T08:29:25.480Z,11.25
2022-11-12T08:32:11.645Z,10.94
2022-11-12T08:34:57.433Z,11.00
2022-11-12T08:37:43.188Z,11.33
2022-11-12T08:40:30.989Z,11.53
2022-11-12T08:43:17.499Z,11.57
2022-11-12T08:46:04.103Z,11.70
2022-11-12T08:49:35.611Z,11.94
2022-11-12T08:56:42.397Z,11.86
2022-11-12T09:00:38.622Z,11.84
2022-11-12T09:39:07.115Z,12.88
2022-11-12T09:48:17.890Z,13.03
2022-11-12T09:52:56.212Z,12.99
2022-11-12T09:59:13.437Z,12.89
2022-11-12T10:02:22.842Z,13.04
2022-11-12T10:05:27.313Z,13.05
2022-11-12T10:08:36.376Z,13.24
2022-11-12T10:11:28.336Z,13.37
2022-11-12T10:14:31.854Z,13.50
2022-11-12T10:17:35.556Z,13.20
2022-11-12T10:20:26.166Z,13.12
2022-11-12T10:23:22.834Z,13.11
2022-11-12T10:26:15.006Z,13.21
2022-11-12T10:29:14.596Z,13.45
2022-11-12T10:32:03.764Z,13.27
2022-11-12T10:34:49.908Z,13.08
2022-11-12T10:37:42.762Z,13.37
2022-11-12T10:40:28.630Z,13.38
2022-11-12T10:43:17.109Z,13.37
2022-11-12T10:46:20.254Z,13.61
2022-11-12T10:49:15.301Z,13.57
2022-11-12T10:52:01.350Z,13.58
2022-11-12T10:54:52.370Z,13.67
2022-11-12T10:57:41.091Z,13.66
2022-11-12T11:00:26.832Z,13.63
2022-11-12T11:03:19.621Z,13.55
2022-11-12T11:06:26.177Z,13.75
2022-11-12T11:09:11.855Z,13.95
2022-11-12T11:11:58.218Z,13.97
2022-11-12T11:14:44.686Z,13.97
2022-11-12T11:17:30.589Z,13.98
2022-11-12T11:20:23.023Z,14.02
2022-11-12T11:23:17.385Z,13.97
2022-11-12T11:26:14.393Z,13.85
2022-11-12T11:29:44.854Z,14.23
2022-11-12T11:32:37.764Z,14.02
2022-11-12T11:35:57.628Z,14.14
2022-11-12T11:39:24.826Z,14.35
2022-11-12T11:42:16.257Z,14.43
2022-11-12T11:45:28.888Z,14.60
2022-11-12T11:48:32.881Z,14.73
2022-11-12T11:51:40.434Z,14.87
2022-11-12T11:54:44.491Z,15.03
2022-11-12T11:57:52.664Z,15.17
2022-11-12T12:00:46.618Z,15.42
2022-11-12T12:03:54.447Z,15.46
2022-11-12T12:07:02.484Z,15.62
2022-11-12T12:10:09.294Z,15.82
2022-11-12T12:13:07.561Z,15.91
2022-11-12T12:16:24.294Z,15.60
2022-11-12T12:19:22.165Z,15.64
2022-11-12T12:22:15.637Z,15.75
2022-11-12T12:25:11.513Z,15.82
2022-11-12T12:28:02.869Z,15.79
2022-11-12T12:30:52.462Z,15.77
2022-11-12T12:33:51.625Z,15.81
2022-11-12T12:36:39.826Z,15.97
2022-11-12T12:39:27.662Z,16.59
2022-11-12T12:42:28.085Z,17.74
2022-11-12T12:45:35.939Z,17.15
2022-11-12T12:48:27.982Z,16.67
2022-11-12T12:51:13.979Z,16.33
2022-11-12T12:54:00.165Z,16.33
2022-11-12T12:56:47.357Z,16.19
2022-11-12T12:59:33.552Z,16.13
2022-11-12T13:02:22.096Z,15.98
2022-11-12T13:05:25.131Z,16.22
2022-11-12T13:08:13.855Z,16.15
2022-11-12T13:10:59.817Z,16.19
2022-11-12T13:13:45.700Z,16.16
2022-11-12T13:16:51.084Z,16.11
2022-11-12T13:19:44.529Z,16.25
2022-11-12T13:22:47.455Z,16.34
2022-11-12T13:25:33.284Z,16.36
2022-11-12T13:28:19.226Z,16.46
2022-11-12T13:31:25.762Z,16.36
2022-11-12T13:34:33.068Z,16.43
2022-11-12T13:37:20.621Z,16.49
2022-11-12T13:40:16.773Z,16.45
2022-11-12T13:43:31.218Z,16.46
2022-11-12T13:46:35.007Z,16.33
2022-11-12T13:49:21.174Z,16.37
2022-11-12T13:52:07.585Z,16.45
2022-11-12T13:55:05.854Z,16.26
2022-11-12T13:57:55.595Z,16.33
2022-11-12T14:00:51.931Z,16.37
2022-11-12T14:03:48.852Z,16.52
2022-11-12T14:06:34.637Z,16.59
2022-11-12T14:09:50.987Z,16.70
2022-11-12T14:12:52.156Z,16.67
2022-11-12T14:16:02.585Z,16.74
2022-11-12T14:19:24.239Z,16.87
2022-11-12T14:22:20.644Z,16.55
2022-11-12T14:25:25.086Z,16.57
2022-11-12T14:28:33.941Z,16.59
2022-11-12T14:31:24.257Z,16.54
2022-11-12T14:34:20.647Z,16.69
2022-11-12T14:37:07.107Z,16.64
2022-11-12T14:39:52.995Z,16.65
2022-11-12T14:42:39.960Z,16.75
2022-11-12T14:45:26.739Z,16.83
2022-11-12T14:48:15.018Z,16.93
2022-11-12T14:51:05.785Z,17.03
2022-11-12T14:54:05.092Z,17.06
2022-11-12T14:56:51.156Z,17.03
2022-11-12T14:59:37.199Z,17.07
2022-11-12T15:02:37.630Z,17.04
2022-11-12T15:05:32.918Z,17.01
2022-11-12T15:08:32.158Z,17.07
2022-11-12T15:11:22.864Z,17.08
2022-11-12T15:14:22.668Z,17.12
2022-11-12T15:17:24.102Z,17.13
2022-11-12T15:20:15.525Z,17.11
2022-11-12T15:23:01.271Z,17.21
2022-11-12T15:25:57.838Z,17.02
2022-11-12T15:28:59.006Z,16.92
2022-11-12T15:31:56.981Z,16.89
2022-11-12T15:34:47.378Z,16.89
2022-11-12T15:37:40.585Z,17.05
2022-11-12T15:40:26.667Z,16.98
2022-11-12T15:43:22.397Z,16.91
2022-11-12T15:46:12.273Z,16.89
2022-11-12T15:48:58.345Z,16.88
2022-11-12T15:51:44.288Z,16.98
2022-11-12T15:54:38.179Z,16.99
2022-11-12T15:57:29.044Z,17.02
2022-11-12T16:00:16.059Z,17.05
2022-11-12T16:03:18.193Z,17.05
2022-11-12T16:06:08.956Z,16.99
2022-11-12T16:08:55.385Z,16.93
2022-11-12T16:11:41.294Z,16.84
2022-11-12T16:14:27.367Z,16.80
2022-11-12T16:17:15.613Z,16.79
2022-11-12T16:20:01.861Z,16.72
2022-11-12T16:22:51.632Z,16.74
2022-11-12T16:25:38.402Z,16.61
2022-11-12T16:28:24.473Z,16.61
2022-11-12T16:31:10.252Z,16.56
2022-11-12T16:33:55.944Z,16.63
2022-11-12T16:36:41.521Z,16.62
2022-11-12T16:39:27.370Z,16.65
2022-11-12T16:42:13.290Z,16.61
2022-11-12T16:44:59.003Z,16.61
2022-11-12T16:47:53.950Z,16.62
2022-11-12T16:50:40.234Z,16.51
2022-11-12T16:53:26.290Z,16.48
2022-11-12T16:56:22.528Z,16.51
2022-11-12T16:59:11.384Z,16.51
2022-11-12T17:01:57.134Z,16.49
2022-11-12T17:04:42.997Z,16.49
2022-11-12T17:07:28.925Z,16.47
2022-11-12T17:10:15.027Z,16.25
2022-11-12T17:13:00.846Z,16.12
2022-11-12T17:15:46.968Z,16.21
2022-11-12T17:18:32.686Z,16.14
2022-11-12T17:21:19.034Z,16.20
2022-11-12T17:24:04.988Z,16.21
2022-11-12T17:26:50.842Z,16.22
2022-11-12T17:29:37.061Z,16.22
2022-11-12T17:32:23.738Z,16.19
2022-11-12T17:35:09.683Z,16.14
2022-11-12T17:37:58.181Z,16.12
2022-11-12T17:40:44.171Z,16.11
2022-11-12T17:43:30.309Z,16.01
2022-11-12T17:46:16.433Z,16.08
2022-11-12T17:49:02.549Z,16.07
2022-11-12T17:51:49.666Z,16.02
2022-11-12T17:54:35.444Z,15.96
2022-11-12T17:57:20.973Z,15.92
2022-11-12T18:00:07.859Z,15.62
2022-11-12T18:02:55.743Z,15.55
2022-11-12T18:05:41.700Z,15.59
2022-11-12T18:08:27.662Z,15.41
2022-11-12T18:11:15.086Z,15.38
2022-11-12T18:14:06.504Z,15.19
2022-11-12T18:16:52.142Z,15.31
2022-11-12T18:19:37.986Z,15.12
2022-11-12T18:22:24.270Z,15.13
2022-11-12T18:25:10.238Z,15.11
2022-11-12T18:27:56.173Z,15.12
2022-11-12T18:30:41.800Z,15.06
2022-11-12T18:33:27.943Z,14.97
2022-11-12T18:36:18.879Z,15.12
2022-11-12T18:39:04.845Z,15.20
2022-11-12T18:41:51.380Z,15.27
2022-11-12T18:44:37.265Z,15.07
2022-11-12T18:47:23.052Z,15.23
2022-11-12T18:50:09.331Z,14.97
2022-11-12T18:52:55.987Z,14.84
2022-11-12T18:55:41.640Z,14.83
2022-11-12T18:58:33.592Z,14.83
2022-11-12T19:01:22.869Z,14.71
2022-11-12T19:04:10.607Z,14.73
2022-11-12T19:06:56.896Z,14.72
2022-11-12T19:09:42.701Z,14.74
2022-11-12T19:12:28.902Z,14.60
2022-11-12T19:15:14.875Z,14.55
2022-11-12T19:18:01.286Z,14.41
2022-11-12T19:20:48.328Z,14.39
2022-11-12T19:23:34.018Z,14.47
2022-11-12T19:26:20.282Z,14.36
2022-11-12T19:29:06.000Z,14.28
2022-11-12T19:31:51.698Z,14.31
2022-11-12T19:34:37.732Z,14.26
2022-11-12T19:37:39.087Z,14.14
2022-11-12T19:40:24.937Z,14.14
2022-11-12T19:43:11.222Z,14.09
2022-11-12T19:45:56.991Z,13.99
2022-11-12T19:48:43.178Z,14.07
2022-11-12T19:51:30.954Z,14.03
2022-11-12T19:54:16.760Z,14.04
2022-11-12T19:57:02.514Z,14.02
2022-11-12T19:59:48.580Z,13.93
2022-11-12T20:02:35.296Z,13.96
2022-11-12T20:05:21.377Z,13.90
2022-11-12T20:08:07.522Z,13.88
2022-11-12T20:10:53.306Z,13.90
2022-11-12T20:13:39.513Z,13.99
2022-11-12T20:16:25.945Z,13.99
2022-11-12T20:19:12.019Z,14.01
2022-11-12T20:21:57.858Z,13.87
2022-11-12T20:24:44.104Z,13.91
2022-11-12T20:27:30.065Z,14.06
2022-11-12T20:30:16.033Z,13.95
2022-11-12T20:33:01.860Z,13.87
2022-11-12T20:35:47.737Z,13.76
2022-11-12T20:38:36.651Z,13.67
2022-11-12T20:41:24.537Z,13.54
2022-11-12T20:44:10.305Z,13.43
2022-11-12T20:46:56.472Z,13.30
2022-11-12T20:49:42.215Z,13.30
2022-11-12T20:52:27.812Z,13.31
2022-11-12T20:55:13.506Z,13.32
2022-11-12T20:58:00.206Z,13.45
2022-11-12T21:00:46.118Z,13.60
2022-11-12T21:03:32.222Z,13.40
2022-11-12T21:06:20.169Z,13.30
2022-11-12T21:09:06.668Z,13.25
2022-11-12T21:11:53.118Z,13.31
2022-11-12T21:14:39.094Z,13.14
2022-11-12T21:17:25.159Z,13.13
2022-11-12T21:20:11.230Z,13.09
2022-11-12T21:22:57.595Z,13.19
2022-11-12T21:25:43.687Z,13.30
2022-11-12T21:28:29.607Z,13.41
2022-11-12T21:31:20.789Z,13.44
2022-11-12T21:34:07.086Z,13.48
2022-11-12T21:36:53.031Z,13.60
2022-11-12T21:39:38.909Z,13.61
2022-11-12T21:42:25.157Z,13.68
2022-11-12T21:45:11.592Z,13.79
2022-11-12T21:47:57.555Z,13.74
2022-11-12T21:50:43.326Z,13.72
2022-11-12T21:53:29.360Z,13.60
2022-11-12T21:56:17.705Z,13.39
2022-11-12T21:59:04.497Z,13.24
2022-11-12T22:01:50.542Z,13.24
2022-11-12T22:04:36.358Z,13.12
2022-11-12T22:07:22.022Z,13.18
2022-11-12T22:10:07.769Z,13.11
2022-11-12T22:13:24.682Z,13.12
2022-11-12T22:15:59.481Z,13.04
2022-11-12T22:18:47.017Z,12.92
2022-11-12T22:21:39.420Z,12.89
2022-11-12T22:24:25.939Z,12.67
2022-11-12T22:27:11.668Z,12.58
2022-11-12T22:29:57.424Z,12.62
2022-11-12T22:32:43.286Z,12.62
2022-11-12T22:35:29.136Z,12.55
2022-11-12T22:38:14.877Z,12.72
2022-11-12T22:41:02.245Z,12.69
2022-11-12T22:43:49.506Z,12.65
2022-11-12T22:46:35.557Z,12.70
2022-11-12T22:49:21.517Z,12.71
2022-11-12T22:52:07.303Z,12.67
2022-11-12T22:54:53.550Z,12.62
2022-11-12T22:57:39.237Z,12.61
2022-11-12T23:00:30.951Z,12.72
2022-11-12T23:03:17.005Z,12.56
2022-11-12T23:06:05.624Z,12.59
2022-11-12T23:08:53.792Z,12.74
2022-11-12T23:11:39.736Z,12.87
2022-11-12T23:14:26.991Z,12.69
2022-11-12T23:17:13.135Z,12.60
2022-11-12T23:23:23.025Z,12.27
2022-11-12T23:26:12.372Z,12.29
2022-11-12T23:28:58.389Z,12.31
2022-11-12T23:31:44.212Z,12.30
2022-11-12T23:34:29.800Z,12.31
2022-11-12T23:37:15.638Z,12.28
2022-11-12T23:40:01.300Z,12.32
2022-11-12T23:42:47.558Z,12.24
2022-11-12T23:45:38.181Z,12.40
2022-11-12T23:48:24.886Z,12.40
2022-11-12T23:51:13.596Z,12.41
2022-11-12T23:53:59.727Z,12.35
2022-11-12T23:56:45.533Z,12.30
2022-11-12T23:59:31.096Z,12.16
